Time;durP1;ratioP1;P1;durP2;ratioP2;P2;SDS_P1;SDS_P2;PMS_P1;PMS_P2;Temp;Humidity;BMP_temperature;BMP_pressure;BME280_temperature;BME280_humidity;BME280_pressure;Samples;Min_cycle;Max_cycle;Signal;HPM_P1;HPM_P2
2022/07/10 00:00:13;;;;;;;2.50;1.17;;;16.80;1.40;;;18.22;100.00;95911.92;649816;216;31542;-79
2022/07/10 00:03:00;;;;;;;1.50;1.40;;;16.90;1.40;;;18.26;100.00;95913.06;619989;226;31837;-77
2022/07/10 00:05:42;;;;;;;2.30;1.45;;;17.00;1.40;;;18.37;100.00;95910.68;619949;223;31835;-77
2022/07/10 00:08:27;;;;;;;2.70;1.40;;;17.10;1.40;;;18.38;100.00;95916.17;643603;216;31594;-76
2022/07/10 00:11:09;;;;;;;2.62;1.20;;;17.20;1.40;;;18.42;100.00;95917.72;648497;216;31505;-76
2022/07/10 00:13:50;;;;;;;2.22;1.42;;;17.20;1.40;;;18.39;100.00;95923.09;647936;212;31520;-76
2022/07/10 00:16:32;;;;;;;1.70;1.60;;;17.20;1.40;;;18.41;100.00;95927.20;647132;216;31499;-78
2022/07/10 00:19:17;;;;;;;3.97;1.80;;;17.20;1.40;;;18.28;100.00;95927.24;651859;212;31520;-77
2022/07/10 00:21:58;;;;;;;2.62;1.50;;;17.10;1.40;;;18.02;100.00;95935.20;649972;212;32057;-76
2022/07/10 00:24:40;;;;;;;2.92;1.90;;;16.90;1.40;;;17.54;100.00;95944.22;619709;226;31916;-76
2022/07/10 00:27:23;;;;;;;1.83;1.73;;;16.40;1.40;;;17.13;100.00;95945.24;622328;222;31843;-76
2022/07/10 00:30:04;;;;;;;2.20;1.80;;;16.10;1.40;;;16.98;100.00;95948.41;644457;216;31520;-76
2022/07/10 00:32:46;;;;;;;2.90;2.10;;;15.90;1.40;;;16.87;100.00;95949.36;649870;216;32071;-76
2022/07/10 00:35:54;;;;;;;2.75;1.92;;;15.80;1.40;;;16.79;100.00;95938.69;623993;226;31888;-76
2022/07/10 00:38:36;;;;;;;2.40;2.20;;;15.70;1.40;;;16.86;100.00;95937.61;645427;216;31570;-77
2022/07/10 00:41:21;;;;;;;3.50;2.58;;;15.60;1.40;;;16.88;100.00;95939.52;650648;216;32077;-76
2022/07/10 00:44:03;;;;;;;2.20;2.00;;;15.50;1.40;;;16.71;100.00;95943.00;618565;226;31884;-76
2022/07/10 00:46:47;;;;;;;2.08;1.60;;;15.40;1.40;;;16.60;100.00;95938.87;649948;212;31603;-76
2022/07/10 00:49:29;;;;;;;2.00;1.80;;;15.40;1.40;;;16.59;100.00;95936.41;646179;216;31564;-76
2022/07/10 00:52:11;;;;;;;3.97;1.67;;;15.30;1.40;;;16.63;100.00;95931.48;651004;216;31670;-76
2022/07/10 00:57:28;;;;;;;2.23;1.40;;;15.30;1.40;;;16.62;100.00;95923.91;621784;226;31876;-76
2022/07/10 01:00:11;;;;;;;2.12;1.80;;;15.20;1.40;;;16.45;100.00;95925.98;648021;216;31622;-77
2022/07/10 01:02:52;;;;;;;2.20;2.00;;;15.10;1.40;;;16.29;100.00;95922.14;647664;216;42386;-77
2022/07/10 01:05:34;;;;;;;2.33;2.12;;;15.00;1.40;;;16.22;100.00;95922.52;648189;216;31556;-76
2022/07/10 01:08:22;;;;;;;3.05;1.85;;;14.90;1.40;;;16.16;100.00;95917.70;651950;216;31599;-79
2022/07/10 01:11:09;;;;;;;2.83;2.00;;;14.90;1.40;;;16.20;100.00;95907.58;646605;216;42211;-76
2022/07/10 01:13:51;;;;;;;2.35;1.75;;;14.80;1.40;;;16.20;100.00;95907.55;654152;216;31731;-76
2022/07/10 01:16:33;;;;;;;2.67;1.37;;;14.80;1.40;;;16.32;100.00;95906.59;643853;216;31608;-77
2022/07/10 01:19:18;;;;;;;3.37;2.00;;;14.90;1.40;;;16.20;100.00;95905.12;621048;226;31856;-76
2022/07/10 01:21:59;;;;;;;1.98;1.87;;;14.80;1.40;;;16.26;100.00;95907.56;647560;216;31550;-77
2022/07/10 01:24:41;;;;;;;2.33;1.50;;;14.80;1.40;;;16.23;100.00;95902.88;643927;216;31564;-76
2022/07/10 01:27:23;;;;;;;1.80;1.70;;;14.80;1.40;;;16.27;100.00;95903.16;648184;216;31654;-76
2022/07/10 01:30:05;;;;;;;2.20;1.90;;;14.80;1.40;;;16.23;100.00;95898.44;648008;212;31582;-76
2022/07/10 01:32:47;;;;;;;2.30;2.10;;;14.70;1.40;;;16.20;100.00;95904.62;649399;216;31574;-76
2022/07/10 01:35:57;;;;;;;1.50;1.40;;;14.60;1.40;;;16.08;100.00;95888.60;646764;216;31741;-77
2022/07/10 01:38:45;;;;;;;1.55;1.40;;;14.70;1.40;;;15.98;100.00;95872.48;646453;216;31546;-75
2022/07/10 01:41:26;;;;;;;2.17;1.48;;;14.50;1.40;;;15.92;100.00;95867.28;624889;225;31878;-75
2022/07/10 01:44:08;;;;;;;3.50;1.70;;;14.40;1.40;;;15.87;100.00;95875.72;648388;212;31565;-75
2022/07/10 01:46:50;;;;;;;1.92;1.83;;;14.40;1.40;;;15.79;100.00;95868.58;647175;216;31608;-75
2022/07/10 01:49:38;;;;;;;2.50;1.90;;;14.30;1.40;;;15.74;100.00;95869.55;649049;212;31561;-76
2022/07/10 01:52:26;;;;;;;3.33;1.85;;;14.30;1.40;;;15.64;100.00;95866.61;649254;212;32239;-76
2022/07/10 01:55:08;;;;;;;1.60;1.40;;;14.30;1.40;;;15.57;100.00;95857.98;624810;225;31962;-76
2022/07/10 01:57:56;;;;;;;3.67;3.00;;;14.30;1.40;;;15.48;100.00;95857.53;647392;216;31666;-78
2022/07/10 02:00:37;;;;;;;1.50;1.12;;;14.20;1.40;;;15.38;100.00;95862.83;647121;212;31603;-77
2022/07/10 02:06:12;;;;;;;1.70;1.60;;;14.20;1.40;;;15.39;100.00;95843.27;647392;216;31706;-76
2022/07/10 02:08:54;;;;;;;2.28;1.92;;;14.10;1.40;;;15.39;100.00;95848.59;650430;216;31521;-76
2022/07/10 02:11:35;;;;;;;1.87;1.77;;;14.00;1.40;;;15.35;100.00;95850.97;651825;216;31606;-76
2022/07/10 02:14:17;;;;;;;2.03;1.67;;;14.00;1.40;;;15.33;100.00;95846.50;653035;216;31514;-76
2022/07/10 02:17:05;;;;;;;1.60;1.37;;;14.00;1.40;;;15.24;100.00;95850.20;647286;212;31554;-77
2022/07/10 02:19:52;;;;;;;2.40;1.87;;;14.00;1.40;;;15.24;100.00;95851.67;647025;216;31551;-76
2022/07/10 02:22:40;;;;;;;2.10;1.33;;;14.00;1.40;;;15.12;100.00;95853.18;646693;216;31699;-77
2022/07/10 02:25:28;;;;;;;2.00;1.80;;;13.90;1.40;;;15.04;100.00;95854.22;647400;212;31496;-76
2022/07/10 02:28:13;;;;;;;1.45;1.35;;;13.90;1.40;;;15.00;100.00;95848.56;646023;216;31556;-76
2022/07/10 02:30:55;;;;;;;2.30;1.42;;;13.80;1.40;;;14.96;100.00;95841.60;619585;226;32209;-77
2022/07/10 02:35:56;;;;;;;2.28;1.80;;;13.80;1.40;;;14.97;100.00;95840.52;648905;216;31842;-77
2022/07/10 02:38:44;;;;;;;2.03;1.60;;;13.80;1.40;;;14.93;100.00;95848.30;645379;216;32141;-76
2022/07/10 02:41:26;;;;;;;13.32;2.17;;;13.80;1.40;;;14.81;100.00;95844.08;642287;220;32115;-76
2022/07/10 02:44:07;;;;;;;1.67;1.58;;;13.70;1.40;;;14.75;100.00;95844.32;643835;212;31604;-76
2022/07/10 02:46:59;;;;;;;1.87;1.70;;;13.60;1.40;;;14.69;100.00;95847.63;645538;216;31735;-76
2022/07/10 02:49:46;;;;;;;2.25;2.05;;;13.60;1.40;;;14.66;100.00;95846.05;651837;212;32129;-76
2022/07/10 02:52:30;;;;;;;2.95;1.67;;;13.60;1.40;;;14.60;100.00;95840.89;649747;216;32222;-76
2022/07/10 02:55:10;;;;;;;3.80;1.83;;;13.60;1.40;;;14.63;100.00;95843.64;652555;216;31572;-76
2022/07/10 02:57:54;;;;;;;1.80;1.70;;;13.50;1.40;;;14.63;100.00;95840.05;652567;214;31515;-76
2022/07/10 03:00:41;;;;;;;2.83;1.90;;;13.50;1.40;;;14.59;100.00;95838.11;646358;216;31539;-76
2022/07/10 03:03:25;;;;;;;2.28;1.35;;;13.50;1.40;;;14.53;100.00;95838.59;645139;216;31649;-77
2022/07/10 03:06:07;;;;;;;2.35;2.15;;;13.40;1.40;;;14.48;100.00;95837.75;646219;216;31591;-76
2022/07/10 03:08:54;;;;;;;2.20;1.50;;;13.30;1.40;;;14.52;100.00;95839.19;647029;216;31553;-77
2022/07/10 03:11:42;;;;;;;8.10;1.75;;;13.30;1.40;;;14.43;100.00;95836.46;646081;214;31713;-76
2022/07/10 03:14:30;;;;;;;2.17;1.80;;;13.20;1.40;;;14.25;100.00;95833.25;654367;216;31612;-77
2022/07/10 03:17:11;;;;;;;1.62;1.30;;;13.10;1.40;;;14.13;100.00;95829.47;618366;222;32015;-76
2022/07/10 03:19:54;;;;;;;2.20;1.60;;;13.00;1.40;;;13.94;100.00;95827.89;651230;216;31517;-76
2022/07/10 03:22:35;;;;;;;1.87;1.77;;;12.80;1.40;;;13.84;100.00;95830.30;625204;225;31864;-76
2022/07/10 03:25:16;;;;;;;1.83;1.58;;;12.80;1.40;;;13.88;100.00;95836.64;649744;212;31767;-76
2022/07/10 03:28:04;;;;;;;1.87;1.45;;;12.80;1.40;;;13.84;100.00;95834.95;651562;212;32178;-76
2022/07/10 03:30:46;;;;;;;1.80;1.50;;;12.80;1.40;;;13.93;100.00;95835.93;650568;212;31631;-76
2022/07/10 03:35:56;;;;;;;1.30;1.20;;;12.80;1.40;;;13.90;100.00;95841.32;649542;216;31635;-76
2022/07/10 03:38:40;;;;;;;2.95;1.90;;;12.90;1.40;;;13.92;100.00;95834.83;647119;216;42183;-76
2022/07/10 03:41:24;;;;;;;1.75;1.60;;;12.90;1.40;;;13.93;100.00;95841.07;649139;216;42194;-76
2022/07/10 03:44:08;;;;;;;1.30;1.20;;;12.90;1.40;;;13.84;100.00;95841.05;644139;216;42779;-76
2022/07/10 03:46:50;;;;;;;7.90;1.50;;;12.80;1.40;;;13.90;100.00;95849.13;646639;216;42836;-76
2022/07/10 03:49:32;;;;;;;1.50;1.40;;;12.90;1.40;;;13.98;100.00;95845.97;650880;216;42742;-76
2022/07/10 03:52:13;;;;;;;1.95;1.52;;;13.00;1.40;;;14.00;100.00;95848.09;643370;216;42601;-76
2022/07/10 03:54:57;;;;;;;2.60;2.40;;;13.00;1.40;;;14.05;100.00;95850.07;648735;216;31580;-77
2022/07/10 04:00:32;;;;;;;2.55;1.40;;;13.10;1.40;;;14.09;100.00;95843.67;617680;222;31843;-76
2022/07/10 04:03:14;;;;;;;2.72;1.90;;;13.20;1.40;;;14.29;100.00;95844.98;645297;216;31850;-76
2022/07/10 04:05:56;;;;;;;3.28;1.45;;;13.30;1.40;;;14.27;100.00;95845.55;624277;226;32032;-76
2022/07/10 04:08:43;;;;;;;3.62;1.60;;;13.30;1.40;;;14.34;100.00;95837.38;653093;212;31515;-78
2022/07/10 04:11:25;;;;;;;1.55;1.33;;;13.40;1.40;;;14.41;100.00;95832.48;650916;216;31556;-77
2022/07/10 04:14:07;;;;;;;2.65;1.27;;;13.50;1.40;;;14.42;100.00;95836.77;645804;212;42189;-77
2022/07/10 04:16:55;;;;;;;1.98;1.75;;;13.60;1.40;;;14.52;100.00;95839.88;643565;216;32043;-77
2022/07/10 04:19:43;;;;;;;6.43;1.85;;;13.60;1.40;;;14.58;100.00;95836.91;649550;212;31572;-77
2022/07/10 04:22:31;;;;;;;2.97;1.80;;;13.70;1.40;;;14.64;100.00;95841.00;653141;212;31577;-76
2022/07/10 04:25:13;;;;;;;2.33;1.75;;;13.80;1.40;;;14.74;100.00;95837.20;646024;216;31523;-76
2022/07/10 04:27:55;;;;;;;3.67;2.40;;;13.80;1.40;;;14.79;100.00;95837.11;645963;212;31564;-76
2022/07/10 04:30:37;;;;;;;3.33;2.05;;;13.90;1.40;;;14.81;100.00;95834.32;645641;216;31557;-76
2022/07/10 04:35:50;;;;;;;1.60;1.50;;;13.90;1.40;;;14.80;100.00;95828.66;646978;216;31660;-76
2022/07/10 04:38:38;;;;;;;1.50;1.30;;;13.80;1.40;;;14.86;100.00;95826.23;644926;216;31483;-77
2022/07/10 04:41:26;;;;;;;4.30;2.28;;;13.90;1.40;;;14.96;100.00;95831.00;647498;216;31753;-75
2022/07/10 04:44:08;;;;;;;2.60;2.00;;;14.00;1.40;;;15.10;100.00;95832.05;650077;216;31499;-76
2022/07/10 04:46:49;;;;;;;1.90;1.70;;;14.00;1.40;;;15.19;100.00;95833.38;646781;212;31727;-76
2022/07/10 04:49:37;;;;;;;2.20;1.70;;;14.10;1.40;;;15.30;100.00;95837.63;648830;216;31667;-77
2022/07/10 04:52:25;;;;;;;2.33;2.12;;;14.30;1.40;;;15.45;100.00;95842.10;641106;216;31797;-76
2022/07/10 04:55:10;;;;;;;2.40;2.20;;;14.40;1.40;;;15.44;100.00;95843.09;626470;222;31877;-76
2022/07/10 04:57:51;;;;;;;2.53;1.80;;;14.50;1.40;;;15.62;100.00;95849.07;652632;216;31559;-76
2022/07/10 05:00:36;;;;;;;2.27;1.97;;;14.60;1.40;;;15.58;100.00;95849.64;618648;226;31999;-76
2022/07/10 05:03:18;;;;;;;1.60;1.50;;;14.50;1.40;;;15.57;100.00;95849.83;647216;216;32107;-75
2022/07/10 05:05:59;;;;;;;2.78;2.58;;;14.50;1.40;;;15.49;100.00;95850.73;644723;216;31850;-75
2022/07/10 05:09:55;;;;;;;2.15;1.95;;;14.40;1.40;;;15.44;100.00;95853.67;644169;212;42206;-75
2022/07/10 05:12:37;;;;;;;3.00;2.22;;;14.40;1.40;;;15.47;100.00;95859.10;648054;216;31562;-75
2022/07/10 05:15:18;;;;;;;3.42;2.62;;;14.40;1.40;;;15.42;100.00;95863.98;619012;226;32442;-76
2022/07/10 05:18:06;;;;;;;2.37;1.92;;;14.30;1.40;;;15.47;100.00;95867.70;653750;216;31540;-77
2022/07/10 05:20:54;;;;;;;3.30;3.00;;;14.20;1.40;;;15.44;100.00;95872.61;649570;212;31616;-75
2022/07/10 05:23:38;;;;;;;3.10;2.50;;;14.20;1.40;;;15.43;100.00;95874.69;648736;216;31536;-75
2022/07/10 05:26:26;;;;;;;4.50;2.92;;;14.20;1.40;;;15.37;100.00;95881.27;649600;216;31542;-78
2022/07/10 05:29:14;;;;;;;3.17;2.53;;;14.20;1.40;;;15.35;100.00;95884.29;643221;217;31561;-75
2022/07/10 05:32:01;;;;;;;3.53;3.00;;;14.20;1.40;;;15.40;100.00;95878.44;646171;213;31674;-77
2022/07/10 05:35:51;;;;;;;3.53;2.58;;;14.20;1.40;;;15.49;100.00;95879.10;619731;226;31928;-76
2022/07/10 05:38:33;;;;;;;2.15;1.95;;;14.20;1.40;;;15.60;100.00;95886.19;616951;222;32013;-75
2022/07/10 05:41:14;;;;;;;3.60;3.10;;;14.30;1.40;;;15.63;100.00;95886.16;646851;216;31541;-75
2022/07/10 05:43:56;;;;;;;3.10;2.80;;;14.30;1.40;;;15.77;100.00;95883.31;645406;216;31876;-75
2022/07/10 05:46:38;;;;;;;3.15;2.50;;;14.50;1.40;;;15.87;100.00;95881.02;647869;216;31567;-75
2022/07/10 05:49:19;;;;;;;2.47;2.28;;;14.50;1.40;;;15.97;100.00;95874.38;649350;212;31524;-75
2022/07/10 05:52:04;;;;;;;3.65;3.00;;;14.60;1.40;;;16.02;100.00;95876.91;644150;212;31546;-75
2022/07/10 05:54:46;;;;;;;4.00;3.60;;;14.70;1.40;;;16.04;100.00;95882.17;646600;216;31564;-76
2022/07/10 05:57:32;;;;;;;4.05;2.83;;;14.80;1.40;;;16.22;100.00;95878.77;647107;212;31750;-75
2022/07/10 06:00:14;;;;;;;5.20;2.70;;;14.70;1.40;;;16.43;100.00;95877.63;645490;216;31585;-76
2022/07/10 06:02:55;;;;;;;2.67;2.10;;;15.00;1.40;;;16.45;100.00;95867.72;645601;216;32166;-75
2022/07/10 06:05:38;;;;;;;2.80;2.37;;;15.10;1.40;;;16.44;100.00;95877.77;646668;216;31978;-76
2022/07/10 06:09:46;;;;;;;3.40;3.00;;;15.10;1.40;;;16.50;100.00;95878.93;647590;216;31546;-77
2022/07/10 06:12:28;;;;;;;3.92;2.80;;;15.10;1.40;;;16.14;100.00;95876.14;647620;212;31599;-75
2022/07/10 06:15:11;;;;;;;4.20;3.60;;;14.80;1.40;;;16.10;100.00;95878.66;621987;226;32381;-75
2022/07/10 06:17:52;;;;;;;3.37;2.70;;;14.80;1.40;;;16.24;100.00;95880.33;648061;216;31537;-76
2022/07/10 06:20:34;;;;;;;3.55;3.25;;;14.90;1.40;;;16.24;100.00;95881.02;646922;212;31771;-74
2022/07/10 06:23:16;;;;;;;3.65;3.03;;;14.90;1.40;;;16.12;100.00;95884.03;646647;216;32673;-74
2022/07/10 06:25:58;;;;;;;5.80;2.80;;;14.80;1.40;;;16.32;100.00;95883.20;649735;216;31636;-74
2022/07/10 06:28:39;;;;;;;3.10;2.72;;;14.90;1.40;;;16.46;100.00;95887.36;648254;216;31542;-74
2022/07/10 06:31:21;;;;;;;3.70;2.67;;;14.80;1.40;;;16.39;100.00;95893.00;648415;216;31608;-73
2022/07/10 06:35:51;;;;;;;2.78;2.53;;;14.70;1.40;;;16.28;100.00;95889.29;650781;216;42199;-73
2022/07/10 06:38:33;;;;;;;4.10;3.30;;;14.90;1.40;;;16.21;100.00;95887.29;648012;216;31576;-73
2022/07/10 06:41:14;;;;;;;3.80;3.37;;;14.90;1.40;;;16.39;100.00;95886.55;618518;226;31985;-73
2022/07/10 06:43:56;;;;;;;3.67;3.37;;;15.00;1.40;;;16.38;100.00;95887.84;648820;212;31698;-74
2022/07/10 06:46:41;;;;;;;2.73;2.53;;;15.00;1.40;;;16.38;100.00;95883.66;647471;216;31533;-73
2022/07/10 06:49:23;;;;;;;4.18;3.25;;;15.00;1.40;;;16.55;100.00;95886.30;650036;216;32081;-73
2022/07/10 06:52:05;;;;;;;2.92;2.67;;;15.10;1.40;;;16.46;100.00;95890.44;645862;212;31618;-74
2022/07/10 06:54:47;;;;;;;6.30;2.90;;;15.10;1.40;;;16.62;100.00;95892.32;646355;216;32366;-75
2022/07/10 06:57:28;;;;;;;2.62;2.42;;;15.10;1.40;;;16.52;100.00;95898.91;647479;216;31719;-73
2022/07/10 07:00:11;;;;;;;4.30;3.58;;;15.00;1.40;;;16.12;100.00;95896.09;647628;212;31644;-74
2022/07/10 07:02:52;;;;;;;4.37;3.12;;;14.70;1.40;;;16.13;100.00;95901.56;631701;221;31761;-73
2022/07/10 07:05:34;;;;;;;3.03;2.50;;;14.70;1.40;;;16.35;100.00;95903.20;644026;216;31600;-73
2022/07/10 07:08:16;;;;;;;4.22;3.20;;;15.00;1.40;;;16.71;100.00;95904.64;647901;212;31577;-74
2022/07/10 07:10:58;;;;;;;3.78;3.08;;;15.40;1.40;;;16.86;100.00;95900.54;646212;212;31593;-74
2022/07/10 07:13:40;;;;;;;3.12;2.83;;;15.70;1.40;;;16.94;100.00;95908.58;645082;216;31617;-74
2022/07/10 07:16:27;;;;;;;3.67;2.50;;;15.40;1.40;;;16.75;100.00;95905.63;644066;212;31684;-73
2022/07/10 07:19:06;;;;;;;3.40;3.10;;;15.20;1.40;;;16.54;100.00;95903.45;647939;216;42202;-73
2022/07/10 07:24:35;;;;;;;4.00;3.00;;;15.30;1.40;;;16.71;100.00;95918.45;617393;225;31927;-73
2022/07/10 07:27:17;;;;;;;3.58;3.17;;;15.20;1.40;;;16.30;100.00;95917.05;647958;212;31536;-73
2022/07/10 07:29:59;;;;;;;3.10;2.60;;;15.00;1.40;;;16.39;100.00;95921.57;617283;226;32930;-74
2022/07/10 07:32:40;;;;;;;2.78;2.40;;;15.00;1.40;;;16.51;100.00;95923.63;645855;216;31591;-74
2022/07/10 07:38:15;;;;;;;5.97;2.97;;;15.30;1.40;;;16.86;100.00;95933.41;618846;222;31940;-74
2022/07/10 07:40:56;;;;;;;3.12;2.83;;;15.50;1.40;;;16.94;100.00;95930.77;647851;216;31632;-74
2022/07/10 07:43:38;;;;;;;2.37;2.17;;;15.60;1.40;;;16.97;100.00;95936.36;646276;212;31687;-75
2022/07/10 07:46:21;;;;;;;2.72;2.50;;;15.60;1.40;;;17.05;100.00;95942.11;620427;226;31934;-74
2022/07/10 07:49:02;;;;;;;2.50;2.10;;;15.60;1.40;;;17.26;100.00;95940.99;648247;216;42191;-74
2022/07/10 07:51:47;;;;;;;2.53;2.33;;;15.80;1.40;;;17.66;100.00;95941.44;645572;216;31552;-74
2022/07/10 07:54:28;;;;;;;2.20;1.98;;;16.30;1.40;;;17.66;100.00;95940.63;649260;216;32096;-74
2022/07/10 07:57:10;;;;;;;2.10;1.90;;;16.30;1.40;;;17.67;100.00;95941.13;619879;222;31926;-74
2022/07/10 07:59:51;;;;;;;2.00;1.80;;;16.40;1.40;;;18.33;100.00;95938.98;644377;216;31527;-74
2022/07/10 08:02:33;;;;;;;2.12;1.70;;;17.00;1.40;;;18.67;100.00;95936.90;647626;216;31531;-74
2022/07/10 08:05:18;;;;;;;5.50;2.50;;;17.40;1.40;;;18.62;100.00;95934.69;647685;216;31529;-74
2022/07/10 08:08:07;;;;;;;2.35;2.15;;;17.20;1.40;;;18.07;100.00;95937.00;645476;216;31528;-74
2022/07/10 08:10:46;;;;;;;2.58;2.37;;;17.00;1.40;;;18.14;100.00;95934.94;647480;216;31542;-74
2022/07/10 08:13:28;;;;;;;2.62;2.20;;;17.00;1.40;;;18.60;100.00;95935.82;620208;222;31911;-74
2022/07/10 08:16:09;;;;;;;1.70;1.60;;;17.50;1.40;;;19.34;100.00;95940.28;647617;216;32163;-74
2022/07/10 08:18:51;;;;;;;2.30;2.10;;;18.00;1.40;;;19.20;100.00;95936.45;648233;216;42611;-74
2022/07/10 08:21:34;;;;;;;3.40;1.67;;;17.50;1.40;;;18.99;100.00;95934.80;649569;216;31532;-74
2022/07/10 08:24:14;;;;;;;1.62;1.52;;;17.60;1.40;;;19.04;100.00;95940.20;646308;212;42334;-75
2022/07/10 08:26:56;;;;;;;2.08;1.87;;;17.70;1.40;;;18.89;100.00;95938.09;648204;212;42121;-75
2022/07/10 08:29:38;;;;;;;2.62;1.50;;;17.60;1.40;;;19.08;100.00;95936.19;648453;216;31735;-74
2022/07/10 08:32:22;;;;;;;3.03;1.45;;;17.90;1.40;;;19.92;100.00;95935.20;647621;216;32178;-76
2022/07/10 08:35:51;;;;;;;1.70;1.20;;;18.60;1.40;;;20.15;100.00;95924.64;649182;216;31914;-74
2022/07/10 08:38:33;;;;;;;1.80;1.70;;;18.50;1.40;;;19.72;100.00;95933.38;617231;226;42531;-74
2022/07/10 08:41:15;;;;;;;1.60;1.50;;;18.20;1.40;;;19.40;100.00;95930.53;646758;216;31747;-75
2022/07/10 08:44:00;;;;;;;1.75;1.35;;;17.90;1.40;;;19.78;100.00;95931.04;649395;212;31558;-76
2022/07/10 08:46:41;;;;;;;1.42;1.33;;;18.00;1.40;;;19.51;100.00;95932.08;648134;216;31766;-75
2022/07/10 08:49:27;;;;;;;1.52;1.40;;;17.50;1.40;;;19.16;100.00;95931.81;646531;212;32053;-75
2022/07/10 08:52:11;;;;;;;1.52;1.30;;;17.40;1.40;;;18.81;100.00;95930.12;646676;216;31511;-74
2022/07/10 08:54:53;;;;;;;2.62;1.40;;;17.50;1.40;;;18.85;100.00;95930.92;647521;216;43177;-76
2022/07/10 08:57:40;;;;;;;2.30;1.50;;;17.80;1.40;;;19.23;100.00;95927.81;646681;212;31549;-75
2022/07/10 09:00:25;;;;;;;1.77;1.40;;;18.30;1.40;;;19.31;100.00;95929.34;646559;216;31658;-75
2022/07/10 09:03:07;;;;;;;2.17;1.50;;;18.20;1.40;;;18.82;100.00;95931.28;646457;216;42178;-74
2022/07/10 09:05:51;;;;;;;1.50;1.33;;;17.40;1.40;;;18.29;100.00;95938.13;646681;212;42808;-74
2022/07/10 09:08:32;;;;;;;1.60;1.50;;;17.00;1.40;;;19.01;100.00;95935.81;645925;212;32373;-74
2022/07/10 09:11:15;;;;;;;2.78;1.00;;;18.40;1.40;;;20.35;100.00;95929.53;651185;216;42142;-75
2022/07/10 09:14:00;;;;;;;2.60;1.65;;;19.70;1.40;;;20.16;100.00;95928.61;629774;221;32222;-75
2022/07/10 09:16:42;;;;;;;2.25;1.40;;;18.80;1.40;;;19.90;100.00;95932.97;647602;216;32078;-75
2022/07/10 09:19:24;;;;;;;2.00;1.40;;;19.20;1.40;;;19.58;100.00;95933.23;647777;216;31657;-74
2022/07/10 09:22:07;;;;;;;1.30;1.20;;;18.40;1.40;;;19.77;100.00;95926.00;620224;222;31893;-74
2022/07/10 09:24:49;;;;;;;1.00;0.90;;;18.80;1.40;;;20.18;100.00;95923.91;645850;216;31951;-75
2022/07/10 09:27:34;;;;;;;1.10;1.00;;;19.40;1.40;;;20.91;99.62;95921.28;646815;212;31740;-76
2022/07/10 09:30:16;;;;;;;1.37;1.10;;;20.10;1.40;;;22.49;92.73;95912.81;649256;216;42683;-75
2022/07/10 09:38:51;;;;;;;2.00;1.10;;;22.90;1.40;;;22.77;80.09;95922.36;645621;216;31567;-75
2022/07/10 09:41:35;;;;;;;1.12;0.90;;;22.20;1.40;;;22.92;78.04;95914.53;651903;212;31528;-77
2022/07/10 09:44:18;;;;;;;1.67;1.50;;;22.40;1.40;;;22.71;77.11;95919.97;647809;216;31578;-75
2022/07/10 09:47:05;;;;;;;1.25;1.10;;;21.60;1.40;;;22.36;78.64;95917.51;646391;216;31623;-77
2022/07/10 09:49:47;;;;;;;2.17;1.27;;;20.30;1.40;;;21.59;80.60;95924.38;645843;212;31615;-76
2022/07/10 09:52:35;;;;;;;1.00;0.80;;;20.30;1.40;;;21.24;84.01;95923.76;642976;212;43994;-75
2022/07/10 09:55:23;;;;;;;1.60;1.30;;;19.70;1.40;;;21.65;84.90;95917.23;646072;216;31587;-78
2022/07/10 09:58:10;;;;;;;2.40;1.30;;;22.00;1.40;;;22.43;79.08;95917.45;653698;216;31486;-75
2022/07/10 10:00:55;;;;;;;1.45;1.10;;;21.50;1.40;;;23.00;78.45;95911.80;645161;216;31608;-75
2022/07/10 10:03:38;;;;;;;1.23;1.00;;;22.80;1.40;;;24.91;72.91;95908.98;648740;216;42118;-75
2022/07/10 10:06:20;;;;;;;2.35;1.60;;;25.10;1.40;;;23.67;74.44;95905.12;644233;212;31519;-75
2022/07/10 10:09:06;;;;;;;1.90;1.12;;;21.30;1.40;;;23.83;75.65;95900.92;644777;216;31644;-75
2022/07/10 10:11:47;;;;;;;1.50;0.90;;;22.50;1.40;;;22.73;75.33;95912.48;650221;216;31517;-75
2022/07/10 10:14:29;;;;;;;1.05;0.80;;;21.50;1.40;;;24.22;66.54;95902.83;646108;212;31597;-75
2022/07/10 10:17:10;;;;;;;1.20;0.73;;;24.10;1.40;;;26.11;64.88;95893.18;650365;216;31619;-76
2022/07/10 10:22:39;;;;;;;1.10;1.00;;;26.80;1.40;;;26.95;58.68;95888.83;648453;212;31546;-76
2022/07/10 10:25:21;;;;;;;1.17;1.00;;;24.50;1.40;;;24.50;62.81;95903.31;645469;212;31500;-77
2022/07/10 10:28:06;;;;;;;1.58;0.98;;;20.70;1.40;;;22.39;69.72;95904.34;650623;216;31559;-75
2022/07/10 10:30:47;;;;;;;1.10;0.90;;;19.60;1.40;;;21.99;73.19;95903.47;619864;226;32340;-77
2022/07/10 10:35:51;;;;;;;1.03;0.90;;;22.90;1.40;;;24.01;67.38;95904.39;652714;216;31617;-75
2022/07/10 10:39:00;;;;;;;2.33;0.90;;;23.70;1.40;;;25.40;62.37;95894.77;645981;216;31517;-75
2022/07/10 10:41:42;;;;;;;1.40;0.90;;;24.00;1.40;;;24.19;63.06;95901.50;653715;212;31645;-75
2022/07/10 10:44:23;;;;;;;0.80;0.80;;;21.90;1.40;;;23.35;67.44;95896.16;646323;212;31491;-76
2022/07/10 10:47:10;;;;;;;0.82;0.80;;;20.60;1.40;;;22.14;71.94;95902.03;652707;212;31652;-73
2022/07/10 10:49:56;;;;;;;0.90;0.80;;;19.80;1.40;;;21.60;76.69;95898.42;648583;212;31568;-72
2022/07/10 10:52:36;;;;;;;2.00;1.00;;;19.50;1.40;;;20.82;77.62;95904.72;646192;216;31508;-74
2022/07/10 10:55:18;;;;;;;1.02;0.90;;;19.10;1.40;;;21.34;78.25;95893.66;648162;216;31546;-73
2022/07/10 10:58:12;;;;;;;1.48;0.70;;;20.50;1.40;;;22.77;74.55;95889.59;651480;216;42682;-72
2022/07/10 11:00:59;;;;;;;0.80;0.80;;;21.10;1.40;;;22.68;73.10;95893.80;647021;212;31474;-73
2022/07/10 11:03:42;;;;;;;1.48;0.70;;;20.70;1.40;;;21.81;72.32;95891.06;621100;226;32426;-73
2022/07/10 11:06:38;;;;;;;1.75;1.10;;;20.30;1.40;;;22.77;72.10;95893.61;652377;212;32022;-72
2022/07/10 11:10:40;;;;;;;1.70;1.08;;;23.10;1.40;;;26.18;63.14;95882.14;650947;212;31674;-73
2022/07/10 11:13:21;;;;;;;0.90;0.80;;;24.40;1.40;;;26.17;59.95;95881.44;644655;216;31571;-73
2022/07/10 11:16:03;;;;;;;0.60;0.60;;;23.10;1.40;;;24.84;61.22;95889.89;646109;216;31517;-73
2022/07/10 11:18:45;;;;;;;1.55;0.90;;;22.60;1.40;;;25.19;60.19;95888.14;648016;216;31502;-73
2022/07/10 11:21:27;;;;;;;3.58;1.05;;;23.70;1.40;;;23.98;62.31;95887.02;624827;226;31886;-72
2022/07/10 11:24:11;;;;;;;1.10;1.00;;;21.50;1.40;;;22.27;66.35;95890.34;647144;212;31585;-72
2022/07/10 11:27:00;;;;;;;1.50;0.90;;;19.90;1.40;;;22.34;68.39;95889.95;650183;216;42160;-78
2022/07/10 11:29:49;;;;;;;1.02;0.70;;;20.60;1.40;;;22.58;67.03;95886.16;645761;213;31536;-75
2022/07/10 11:32:29;;;;;;;1.65;1.00;;;21.60;1.40;;;23.14;63.67;95884.02;647468;212;31522;-74
2022/07/10 11:35:51;;;;;;;1.30;0.80;;;22.30;1.40;;;23.29;63.44;95888.00;647521;216;31570;-75
2022/07/10 11:38:35;;;;;;;1.50;0.62;;;20.80;1.40;;;22.64;66.49;95886.27;649282;215;31542;-75
2022/07/10 11:41:15;;;;;;;1.10;0.70;;;19.90;1.40;;;24.10;63.17;95887.60;648472;212;31481;-75
2022/07/10 11:44:01;;;;;;;3.10;0.80;;;22.80;1.40;;;24.31;61.05;95889.68;645621;216;31611;-75
2022/07/10 11:46:44;;;;;;;1.75;0.90;;;21.40;1.40;;;22.83;64.66;95894.09;650727;216;32001;-75
2022/07/10 11:49:28;;;;;;;1.42;0.80;;;20.90;1.40;;;23.50;63.82;95889.75;649770;212;32087;-75
2022/07/10 11:52:09;;;;;;;1.80;1.20;;;20.90;1.40;;;24.36;61.68;95884.84;647228;212;31596;-74
2022/07/10 11:54:51;;;;;;;1.00;0.80;;;22.30;1.40;;;25.37;58.37;95874.27;645394;212;31512;-75
2022/07/10 12:00:10;;;;;;;2.17;0.70;;;23.50;1.40;;;27.08;55.31;95865.38;648201;212;31504;-75
2022/07/10 12:02:53;;;;;;;1.30;0.80;;;23.60;1.40;;;27.13;54.55;95865.92;651824;212;32246;-76
2022/07/10 12:05:37;;;;;;;2.60;1.00;;;23.90;1.40;;;27.89;51.48;95859.31;653757;216;42924;-75
2022/07/10 12:08:19;;;;;;;0.90;0.80;;;22.90;1.40;;;24.10;58.96;95880.98;648373;212;31460;-76
2022/07/10 12:11:01;;;;;;;1.45;0.60;;;20.80;1.40;;;22.36;63.40;95887.58;646228;216;31538;-75